createdAt,value
2023-04-16T00:01:12.753Z,15.82
2023-04-16T00:03:39.921Z,16.63
2023-04-16T00:06:07.416Z,16.67
2023-04-16T00:08:35.960Z,16.10
2023-04-16T00:11:03.012Z,15.80
2023-04-16T00:13:30.212Z,16.45
2023-04-16T00:15:57.320Z,15.85
2023-04-16T00:18:24.415Z,17.60
2023-04-16T00:20:52.325Z,19.38
2023-04-16T00:23:19.931Z,17.70
2023-04-16T00:25:47.205Z,16.60
2023-04-16T00:28:14.196Z,18.63
2023-04-16T00:30:41.382Z,19.17
2023-04-16T00:33:08.436Z,18.52
2023-04-16T00:35:35.670Z,21.90
2023-04-16T00:38:02.797Z,20.90
2023-04-16T00:40:30.717Z,21.98
2023-04-16T00:42:57.787Z,20.35
2023-04-16T00:45:24.874Z,24.08
2023-04-16T00:47:52.086Z,27.90
2023-04-16T00:50:19.215Z,25.25
2023-04-16T00:52:48.756Z,27.90
2023-04-16T00:55:17.818Z,29.20
2023-04-16T00:57:46.041Z,31.90
2023-04-16T01:00:13.623Z,31.42
2023-04-16T01:02:40.855Z,31.60
2023-04-16T01:05:08.281Z,32.33
2023-04-16T01:07:35.388Z,35.25
2023-04-16T01:10:03.581Z,33.17
2023-04-16T01:12:30.849Z,33.88
2023-04-16T01:14:58.048Z,35.30
2023-04-16T01:17:25.172Z,37.97
2023-04-16T01:19:52.238Z,35.08
2023-04-16T01:22:19.753Z,34.33
2023-04-16T01:24:46.733Z,34.53
2023-04-16T01:27:13.780Z,32.90
2023-04-16T01:29:41.016Z,33.55
2023-04-16T01:32:08.052Z,34.13
2023-04-16T01:34:35.068Z,36.00
2023-04-16T01:37:03.457Z,36.00
2023-04-16T01:39:30.618Z,32.42
2023-04-16T01:41:57.685Z,34.78
2023-04-16T01:44:25.649Z,32.55
2023-04-16T01:46:52.837Z,32.17
2023-04-16T01:49:19.956Z,33.47
2023-04-16T01:51:47.122Z,29.02
2023-04-16T01:54:14.255Z,30.02
2023-04-16T01:56:41.283Z,28.20
2023-04-16T01:59:08.610Z,31.92
2023-04-16T02:01:35.956Z,29.70
2023-04-16T02:04:03.063Z,34.03
2023-04-16T02:06:30.796Z,29.85
2023-04-16T02:08:57.912Z,29.63
2023-04-16T02:11:24.974Z,29.50
2023-04-16T02:13:52.026Z,29.40
2023-04-16T02:16:19.131Z,27.27
2023-04-16T02:18:46.160Z,28.40
2023-04-16T02:21:14.129Z,26.73
2023-04-16T02:23:41.553Z,31.50
2023-04-16T02:26:08.580Z,28.48
2023-04-16T02:28:35.589Z,28.95
2023-04-16T02:31:02.642Z,28.33
2023-04-16T02:33:29.749Z,26.13
2023-04-16T02:35:56.824Z,27.48
2023-04-16T02:38:23.890Z,28.75
2023-04-16T02:40:51.008Z,27.35
2023-04-16T02:43:18.041Z,25.50
2023-04-16T02:45:45.469Z,27.50
2023-04-16T02:48:12.572Z,25.10
2023-04-16T02:50:39.645Z,26.38
2023-04-16T02:53:07.981Z,26.00
2023-04-16T02:55:35.041Z,25.42
2023-04-16T02:58:02.183Z,26.10
2023-04-16T03:00:29.188Z,26.88
2023-04-16T03:02:56.483Z,27.48
2023-04-16T03:05:23.585Z,28.85
2023-04-16T03:07:56.681Z,24.75
2023-04-16T03:10:27.043Z,24.30
2023-04-16T03:12:54.126Z,26.60
2023-04-16T03:15:21.256Z,24.85
2023-04-16T03:17:48.313Z,24.52
2023-04-16T03:20:17.180Z,25.10
2023-04-16T03:22:44.238Z,24.55
2023-04-16T03:25:11.358Z,27.90
2023-04-16T03:27:39.912Z,28.13
2023-04-16T03:30:12.549Z,32.05
2023-04-16T03:32:40.268Z,34.67
2023-04-16T03:35:08.058Z,32.42
2023-04-16T03:37:35.686Z,33.92
2023-04-16T03:40:03.721Z,34.80
2023-04-16T03:42:30.709Z,34.10
2023-04-16T03:44:57.828Z,33.10
2023-04-16T03:47:24.900Z,34.58
2023-04-16T03:49:51.999Z,34.97
2023-04-16T03:52:18.983Z,34.83
2023-04-16T03:54:46.010Z,35.83
2023-04-16T03:57:13.161Z,37.15
2023-04-16T03:59:40.192Z,36.50
2023-04-16T04:02:07.247Z,37.00
2023-04-16T04:04:34.489Z,39.92
2023-04-16T04:07:01.641Z,39.67
2023-04-16T04:09:28.674Z,37.30
2023-04-16T04:11:55.728Z,43.55
2023-04-16T04:14:22.843Z,47.72
2023-04-16T04:16:49.974Z,41.22
2023-04-16T04:19:17.047Z,38.75
2023-04-16T04:21:44.120Z,37.13
2023-04-16T04:24:11.156Z,37.25
2023-04-16T04:26:38.253Z,34.10
2023-04-16T04:29:05.879Z,34.63
2023-04-16T04:31:32.959Z,33.70
2023-04-16T04:34:00.037Z,35.08
2023-04-16T04:36:27.581Z,32.65
2023-04-16T04:38:54.699Z,33.22
2023-04-16T04:41:21.938Z,30.85
2023-04-16T04:43:49.096Z,31.08
2023-04-16T04:46:16.387Z,31.92
2023-04-16T04:48:43.400Z,30.42
2023-04-16T04:51:10.692Z,31.23
2023-04-16T04:53:37.756Z,31.75
2023-04-16T04:56:11.802Z,32.63
2023-04-16T04:58:40.759Z,33.67
2023-04-16T05:01:07.782Z,31.38
2023-04-16T05:03:34.903Z,34.72
2023-04-16T05:06:01.967Z,33.00
2023-04-16T05:08:29.032Z,31.52
2023-04-16T05:10:59.141Z,30.35
2023-04-16T05:13:26.362Z,31.13
2023-04-16T05:15:53.387Z,31.00
2023-04-16T05:18:20.483Z,29.27
2023-04-16T05:20:47.500Z,31.42
2023-04-16T05:23:15.800Z,30.05
2023-04-16T05:25:43.125Z,29.45
2023-04-16T05:28:10.907Z,30.77
2023-04-16T05:30:38.020Z,29.67
2023-04-16T05:33:05.082Z,30.98
2023-04-16T05:35:32.147Z,29.98
2023-04-16T05:37:59.197Z,30.55
2023-04-16T05:40:26.560Z,28.15
2023-04-16T05:42:53.805Z,29.08
2023-04-16T05:45:21.294Z,29.83
2023-04-16T05:47:48.602Z,28.98
2023-04-16T05:50:16.276Z,29.25
2023-04-16T05:52:43.631Z,29.80
2023-04-16T05:55:11.162Z,29.20
2023-04-16T05:57:38.414Z,31.52
2023-04-16T06:00:06.305Z,32.97
2023-04-16T06:02:34.162Z,30.15
2023-04-16T06:05:01.733Z,32.20
2023-04-16T06:07:29.204Z,29.08
2023-04-16T06:09:56.633Z,32.10
2023-04-16T06:12:23.903Z,32.42
2023-04-16T06:14:51.290Z,33.88
2023-04-16T06:17:19.650Z,32.45
2023-04-16T06:19:46.900Z,29.20
2023-04-16T06:22:14.425Z,30.65
2023-04-16T06:24:42.138Z,29.75
2023-04-16T06:27:09.413Z,32.40
2023-04-16T06:29:41.108Z,35.20
2023-04-16T06:32:09.451Z,28.80
2023-04-16T06:34:38.054Z,31.00
2023-04-16T06:37:05.600Z,31.38
2023-04-16T06:39:33.765Z,30.88
2023-04-16T06:42:01.699Z,29.70
2023-04-16T06:44:29.095Z,29.95
2023-04-16T06:46:56.401Z,34.05
2023-04-16T06:49:23.707Z,30.63
2023-04-16T06:51:51.166Z,31.77
2023-04-16T06:54:20.052Z,30.08
2023-04-16T06:56:47.352Z,32.15
2023-04-16T06:59:14.582Z,31.10
2023-04-16T07:01:41.956Z,30.15
2023-04-16T07:04:10.225Z,32.50
2023-04-16T07:06:37.547Z,33.20
2023-04-16T07:09:05.052Z,31.52
2023-04-16T07:11:35.938Z,31.15
2023-04-16T07:14:03.973Z,30.75
2023-04-16T07:16:31.381Z,29.58
2023-04-16T07:18:58.670Z,30.77
2023-04-16T07:21:26.555Z,30.98
2023-04-16T07:23:54.207Z,32.58
2023-04-16T07:26:21.534Z,31.52
2023-04-16T07:28:48.682Z,30.23
2023-04-16T07:31:19.115Z,32.60
2023-04-16T07:33:46.419Z,33.65
2023-04-16T07:36:14.382Z,34.10
2023-04-16T07:38:41.842Z,32.42
2023-04-16T07:41:09.109Z,33.47
2023-04-16T07:43:36.489Z,33.95
2023-04-16T07:46:04.031Z,36.55
2023-04-16T07:48:31.449Z,34.42
2023-04-16T07:50:58.886Z,34.60
2023-04-16T07:53:26.578Z,33.53
2023-04-16T07:55:55.257Z,34.67
2023-04-16T07:58:22.548Z,35.42
2023-04-16T08:00:51.046Z,36.60
2023-04-16T08:03:18.782Z,33.85
2023-04-16T08:05:46.300Z,33.78
2023-04-16T08:08:13.642Z,33.42
2023-04-16T08:10:40.988Z,35.22
2023-04-16T08:13:08.231Z,34.45
2023-04-16T08:15:35.578Z,34.33
2023-04-16T08:18:02.908Z,32.65
2023-04-16T08:20:30.254Z,33.17
2023-04-16T08:22:57.528Z,32.00
2023-04-16T08:25:25.054Z,33.25
2023-04-16T08:27:52.233Z,32.65
2023-04-16T08:30:19.546Z,33.30
2023-04-16T08:32:49.915Z,30.30
2023-04-16T08:35:17.621Z,28.92
2023-04-16T08:37:44.882Z,29.20
2023-04-16T08:40:12.495Z,28.65
2023-04-16T08:43:00.687Z,29.52
2023-04-16T08:45:28.289Z,28.52
2023-04-16T08:47:55.662Z,27.65
2023-04-16T08:50:28.761Z,28.80
2023-04-16T08:53:06.821Z,27.40
2023-04-16T08:55:39.815Z,26.73
2023-04-16T08:58:18.777Z,26.38
2023-04-16T09:00:46.896Z,27.13
2023-04-16T09:03:14.358Z,24.60
2023-04-16T09:05:43.228Z,25.10
2023-04-16T09:08:10.673Z,24.25
2023-04-16T09:10:38.090Z,24.98
2023-04-16T09:13:05.479Z,23.60
2023-04-16T09:15:35.203Z,22.98
2023-04-16T09:18:02.609Z,23.48
2023-04-16T09:20:29.986Z,22.60
2023-04-16T09:22:57.580Z,23.73
2023-04-16T09:25:26.653Z,22.25
2023-04-16T09:27:56.340Z,23.25
2023-04-16T09:30:26.504Z,23.13
2023-04-16T09:33:23.019Z,22.58
2023-04-16T09:35:52.867Z,21.92
2023-04-16T09:38:21.376Z,21.95
2023-04-16T09:40:48.830Z,21.90
2023-04-16T09:43:19.369Z,21.08
2023-04-16T09:45:54.583Z,22.67
2023-04-16T09:48:32.787Z,20.85
2023-04-16T09:51:01.230Z,22.90
2023-04-16T09:53:31.001Z,21.13
2023-04-16T09:55:59.688Z,21.10
2023-04-16T09:58:27.300Z,21.83
2023-04-16T10:01:01.946Z,21.33
2023-04-16T10:03:37.071Z,21.90
2023-04-16T10:06:08.484Z,20.55
2023-04-16T10:08:36.587Z,21.45
2023-04-16T10:11:03.969Z,21.88
2023-04-16T10:13:32.352Z,21.70
2023-04-16T10:16:00.329Z,20.27
2023-04-16T10:18:29.354Z,20.40
2023-04-16T10:20:57.748Z,19.75
2023-04-16T10:23:24.974Z,20.48
2023-04-16T10:25:56.433Z,19.92
2023-04-16T10:28:29.384Z,19.25
2023-04-16T10:30:58.788Z,19.42
2023-04-16T10:33:35.005Z,19.85
2023-04-16T10:36:12.802Z,19.08
2023-04-16T10:38:42.256Z,19.70
2023-04-16T10:41:10.156Z,19.33
2023-04-16T10:43:41.772Z,19.23
2023-04-16T10:46:24.972Z,19.75
2023-04-16T10:48:55.177Z,18.33
2023-04-16T10:51:33.850Z,19.80
2023-04-16T10:54:11.468Z,19.40
2023-04-16T10:56:38.936Z,17.65
2023-04-16T10:59:07.845Z,16.70
2023-04-16T11:01:41.122Z,17.10
2023-04-16T11:04:20.471Z,18.20
2023-04-16T11:07:07.452Z,18.40
2023-04-16T11:10:00.221Z,17.20
2023-04-16T11:12:36.070Z,17.58
2023-04-16T11:15:05.080Z,16.55
2023-04-16T11:17:52.229Z,17.13
2023-04-16T11:20:20.040Z,18.33
2023-04-16T11:22:51.801Z,18.52
2023-04-16T11:25:30.319Z,18.38
2023-04-16T11:27:59.333Z,16.52
2023-04-16T11:30:31.758Z,17.25
2023-04-16T11:32:58.956Z,17.58
2023-04-16T11:35:26.303Z,16.02
2023-04-16T11:37:57.225Z,14.85
2023-04-16T11:40:25.530Z,15.48
2023-04-16T11:42:52.640Z,15.27
2023-04-16T11:45:19.690Z,14.52
2023-04-16T11:47:56.933Z,14.32
2023-04-16T11:50:28.352Z,13.40
2023-04-16T11:52:57.710Z,14.18
2023-04-16T11:55:25.015Z,14.07
2023-04-16T11:57:52.714Z,13.43
2023-04-16T12:00:23.110Z,14.13
2023-04-16T12:02:53.870Z,13.23
2023-04-16T12:05:39.502Z,13.27
2023-04-16T12:08:09.060Z,13.15
2023-04-16T12:10:38.348Z,13.32
2023-04-16T12:13:17.966Z,13.45
2023-04-16T12:15:48.850Z,12.57
2023-04-16T12:18:17.188Z,13.98
2023-04-16T12:20:45.088Z,13.45
2023-04-16T12:23:26.371Z,15.55
2023-04-16T12:26:10.888Z,12.38
2023-04-16T12:28:38.810Z,13.82
2023-04-16T12:31:06.557Z,12.90
2023-04-16T12:33:33.749Z,12.60
2023-04-16T12:36:02.339Z,11.05
2023-04-16T12:38:30.060Z,12.63
2023-04-16T12:40:58.483Z,13.05
2023-04-16T12:43:26.097Z,12.30
2023-04-16T12:45:53.276Z,12.73
2023-04-16T12:48:20.480Z,11.95
2023-04-16T12:50:47.712Z,12.48
2023-04-16T12:53:14.837Z,13.70
2023-04-16T12:55:42.120Z,12.90
2023-04-16T12:58:11.901Z,13.05
2023-04-16T13:00:40.045Z,11.73
2023-04-16T13:03:07.308Z,12.80
2023-04-16T13:05:34.632Z,12.43
2023-04-16T13:08:01.707Z,11.70
2023-04-16T13:10:28.811Z,13.32
2023-04-16T13:12:56.158Z,12.25
2023-04-16T13:15:23.183Z,13.15
2023-04-16T13:17:50.281Z,12.10
2023-04-16T13:20:17.453Z,12.07
2023-04-16T13:22:44.500Z,11.68
2023-04-16T13:25:11.771Z,12.18
2023-04-16T13:27:38.800Z,11.40
2023-04-16T13:30:06.745Z,12.48
2023-04-16T13:32:33.859Z,11.93
2023-04-16T13:35:01.024Z,11.80
2023-04-16T13:37:28.068Z,11.32
2023-04-16T13:39:55.229Z,10.98
2023-04-16T13:42:22.308Z,12.45
2023-04-16T13:44:53.183Z,10.45
2023-04-16T13:47:20.359Z,11.35
2023-04-16T13:49:47.785Z,10.45
2023-04-16T13:52:14.800Z,11.40
2023-04-16T13:54:42.077Z,11.20
2023-04-16T13:57:12.785Z,10.65
2023-04-16T13:59:39.940Z,11.10
2023-04-16T14:02:07.256Z,10.15
2023-04-16T14:04:34.344Z,11.13
2023-04-16T14:07:01.419Z,11.10
2023-04-16T14:09:28.486Z,11.70
2023-04-16T14:11:56.010Z,10.52
2023-04-16T14:14:23.048Z,9.68
2023-04-16T14:16:50.209Z,10.70
2023-04-16T14:19:17.385Z,11.07
2023-04-16T14:21:44.461Z,11.88
2023-04-16T14:24:12.737Z,12.18
2023-04-16T14:26:39.841Z,11.25
2023-04-16T14:29:07.018Z,10.77
2023-04-16T14:31:34.093Z,11.45
2023-04-16T14:34:01.478Z,11.68
2023-04-16T14:36:28.697Z,11.35
2023-04-16T14:38:55.873Z,12.35
2023-04-16T14:41:22.892Z,12.07
2023-04-16T14:43:49.966Z,12.57
2023-04-16T14:46:19.971Z,11.90
2023-04-16T14:48:47.080Z,12.73
2023-04-16T14:51:14.284Z,13.25
2023-04-16T14:53:41.587Z,12.57
2023-04-16T14:56:08.650Z,13.32
2023-04-16T14:58:37.922Z,12.77
2023-04-16T15:01:06.366Z,13.20
2023-04-16T15:03:33.679Z,12.98
2023-04-16T15:06:01.680Z,12.40
2023-04-16T15:08:28.788Z,12.13
2023-04-16T15:10:55.837Z,12.88
2023-04-16T15:13:22.887Z,13.15
2023-04-16T15:15:50.143Z,13.07
2023-04-16T15:18:17.449Z,12.48
2023-04-16T15:20:44.551Z,13.93
2023-04-16T15:23:11.725Z,13.43
2023-04-16T15:25:38.758Z,13.20
2023-04-16T15:28:06.660Z,12.95
2023-04-16T15:30:33.897Z,13.07
2023-04-16T15:33:01.228Z,14.35
2023-04-16T15:35:28.473Z,14.63
2023-04-16T15:37:55.518Z,14.05
2023-04-16T15:40:22.744Z,13.88
2023-04-16T15:42:49.913Z,14.18
2023-04-16T15:45:17.175Z,14.10
2023-04-16T15:47:51.300Z,13.95
2023-04-16T15:52:47.197Z,14.00
2023-04-16T15:55:15.637Z,15.20
2023-04-16T15:57:42.679Z,14.27
2023-04-16T16:00:21.334Z,14.77
2023-04-16T16:02:48.484Z,14.25
2023-04-16T16:05:17.012Z,13.65
2023-04-16T16:07:44.905Z,14.30
2023-04-16T16:10:15.086Z,14.85
2023-04-16T16:12:42.275Z,13.68
2023-04-16T16:15:11.266Z,14.30
2023-04-16T16:17:39.156Z,15.93
2023-04-16T16:20:09.591Z,15.02
2023-04-16T16:22:38.403Z,13.82
2023-04-16T16:25:06.452Z,15.02
2023-04-16T16:27:33.446Z,15.90
2023-04-16T16:30:01.046Z,14.93
2023-04-16T16:32:28.164Z,15.35
2023-04-16T16:34:56.163Z,16.20
2023-04-16T16:37:23.229Z,15.32
2023-04-16T16:39:50.286Z,15.55
2023-04-16T16:42:19.050Z,16.60
2023-04-16T16:44:49.555Z,15.85
2023-04-16T16:47:16.679Z,15.48
2023-04-16T16:49:44.438Z,16.70
2023-04-16T16:52:11.611Z,17.02
2023-04-16T16:54:38.613Z,17.60
2023-04-16T16:57:05.863Z,17.45
2023-04-16T16:59:32.981Z,16.50
2023-04-16T17:02:00.044Z,17.85
2023-04-16T17:04:27.148Z,18.00
2023-04-16T17:06:54.284Z,20.80
2023-04-16T17:09:21.624Z,17.58
2023-04-16T17:11:48.643Z,17.10
2023-04-16T17:14:15.765Z,16.77
2023-04-16T17:16:43.854Z,15.77
2023-04-16T17:19:12.407Z,15.63
2023-04-16T17:21:39.543Z,16.75
2023-04-16T17:24:06.668Z,15.77
2023-04-16T17:26:33.695Z,15.30
2023-04-16T17:29:00.873Z,15.65
2023-04-16T17:31:28.424Z,15.52
2023-04-16T17:33:55.535Z,15.30
2023-04-16T17:36:23.341Z,15.55
2023-04-16T17:38:50.813Z,16.25
2023-04-16T17:41:17.987Z,15.55
2023-04-16T17:43:48.919Z,15.73
2023-04-16T17:46:16.196Z,17.45
2023-04-16T17:48:48.982Z,15.30
2023-04-16T17:51:19.004Z,15.52
2023-04-16T17:53:46.055Z,15.45
2023-04-16T17:56:14.114Z,15.07
2023-04-16T17:58:41.248Z,15.77
2023-04-16T18:01:08.464Z,16.10
2023-04-16T18:03:37.361Z,15.90
2023-04-16T18:06:05.609Z,17.05
2023-04-16T18:08:33.894Z,16.10
2023-04-16T18:11:03.381Z,16.73
2023-04-16T18:13:30.596Z,16.95
2023-04-16T18:15:57.685Z,17.42
2023-04-16T18:18:24.716Z,18.42
2023-04-16T18:20:52.725Z,16.58
2023-04-16T18:23:19.811Z,18.98
2023-04-16T18:25:48.793Z,17.30
2023-04-16T18:28:17.893Z,17.52
2023-04-16T18:30:45.313Z,19.27
2023-04-16T18:33:42.757Z,17.80
2023-04-16T18:36:06.315Z,23.98
2023-04-16T18:38:33.528Z,21.60
2023-04-16T18:41:02.190Z,19.20
2023-04-16T18:43:29.514Z,19.05
2023-04-16T18:45:56.714Z,17.90
2023-04-16T18:48:23.832Z,19.67
2023-04-16T18:50:51.217Z,16.33
2023-04-16T18:53:20.790Z,16.52
2023-04-16T18:55:52.848Z,15.70
2023-04-16T18:58:22.653Z,16.33
2023-04-16T19:00:59.035Z,18.50
2023-04-16T19:03:29.664Z,17.23
2023-04-16T19:06:00.268Z,17.77
2023-04-16T19:08:27.457Z,17.17
2023-04-16T19:10:59.138Z,17.02
2023-04-16T19:13:26.400Z,16.88
2023-04-16T19:16:02.989Z,17.13
2023-04-16T19:18:32.729Z,16.08
2023-04-16T19:21:01.847Z,18.05
2023-04-16T19:23:34.504Z,19.63
2023-04-16T19:26:04.756Z,18.83
2023-04-16T19:28:31.998Z,19.48
2023-04-16T19:30:58.991Z,17.42
2023-04-16T19:33:28.679Z,22.30
2023-04-16T19:35:56.255Z,19.05
2023-04-16T19:38:23.905Z,17.85
2023-04-16T19:40:51.350Z,17.75
2023-04-16T19:43:18.618Z,18.30
2023-04-16T19:45:47.818Z,17.45
2023-04-16T19:48:17.519Z,17.83
2023-04-16T19:50:47.271Z,16.92
2023-04-16T19:53:16.172Z,19.58
2023-04-16T19:55:43.255Z,19.42
2023-04-16T19:58:12.100Z,19.83
2023-04-16T20:00:43.748Z,19.27
2023-04-16T20:03:12.810Z,18.88
2023-04-16T20:05:40.054Z,19.13
2023-04-16T20:08:07.209Z,18.98
2023-04-16T20:10:34.533Z,19.08
2023-04-16T20:13:01.756Z,20.25
2023-04-16T20:15:29.157Z,20.02
2023-04-16T20:17:56.491Z,20.63
2023-04-16T20:20:23.951Z,20.55
2023-04-16T20:22:51.400Z,20.70
2023-04-16T20:25:19.535Z,21.55
2023-04-16T20:27:46.845Z,21.85
2023-04-16T20:30:14.443Z,21.88
2023-04-16T20:32:41.529Z,22.25
2023-04-16T20:35:11.359Z,21.55
2023-04-16T20:37:38.850Z,22.02
2023-04-16T20:40:09.666Z,22.30
2023-04-16T20:42:36.748Z,23.20
2023-04-16T20:45:03.965Z,23.10
2023-04-16T20:47:30.967Z,22.52
2023-04-16T20:49:58.378Z,22.23
2023-04-16T20:52:26.048Z,23.70
2023-04-16T20:54:53.207Z,23.10
2023-04-16T20:57:20.341Z,22.98
2023-04-16T20:59:48.400Z,23.73
2023-04-16T21:02:15.608Z,23.55
2023-04-16T21:04:43.009Z,25.17
2023-04-16T21:07:10.233Z,24.77
2023-04-16T21:09:37.357Z,23.75
2023-04-16T21:12:04.628Z,25.70
2023-04-16T21:14:31.697Z,24.67
2023-04-16T21:16:58.783Z,26.10
2023-04-16T21:19:25.923Z,26.60
2023-04-16T21:21:52.961Z,26.73
2023-04-16T21:24:20.094Z,27.17
2023-04-16T21:26:47.121Z,27.77
2023-04-16T21:29:14.262Z,28.98
2023-04-16T21:31:43.825Z,28.83
2023-04-16T21:34:10.885Z,29.30
2023-04-16T21:36:37.958Z,30.17
2023-04-16T21:39:05.054Z,30.42
2023-04-16T21:41:32.119Z,28.85
2023-04-16T21:43:59.138Z,30.33
2023-04-16T21:46:26.873Z,28.67
2023-04-16T21:48:54.006Z,30.25
2023-04-16T21:51:29.221Z,30.17
2023-04-16T21:53:57.247Z,29.67
2023-04-16T21:56:27.294Z,30.23
2023-04-16T21:58:54.360Z,26.77
2023-04-16T22:01:22.134Z,27.30
2023-04-16T22:03:52.252Z,26.70
2023-04-16T22:06:20.675Z,26.02
2023-04-16T22:08:49.992Z,25.02
2023-04-16T22:11:17.251Z,22.10
2023-04-16T22:13:46.455Z,21.10
2023-04-16T22:16:13.634Z,19.95
2023-04-16T22:18:41.294Z,17.40
2023-04-16T22:21:08.404Z,17.88
2023-04-16T22:23:35.703Z,16.77
2023-04-16T22:26:03.074Z,16.92
2023-04-16T22:28:30.361Z,16.45
2023-04-16T22:30:57.570Z,16.60
2023-04-16T22:33:24.733Z,17.13
2023-04-16T22:35:51.891Z,18.80
2023-04-16T22:38:18.911Z,18.77
2023-04-16T22:40:49.009Z,18.10
2023-04-16T22:43:17.704Z,19.00
2023-04-16T22:45:46.549Z,18.73
2023-04-16T22:48:13.657Z,17.75
2023-04-16T22:50:45.983Z,18.92
2023-04-16T22:53:13.117Z,20.45
2023-04-16T22:55:40.176Z,20.42
2023-04-16T22:58:07.180Z,20.45
2023-04-16T23:00:34.393Z,20.42
2023-04-16T23:03:01.656Z,21.40
2023-04-16T23:05:28.924Z,20.60
2023-04-16T23:07:56.131Z,21.75
2023-04-16T23:10:23.271Z,22.20
2023-04-16T23:12:50.604Z,22.38
2023-04-16T23:15:17.784Z,21.80
2023-04-16T23:17:45.690Z,23.75
2023-04-16T23:20:14.804Z,21.38
2023-04-16T23:22:42.097Z,23.48
2023-04-16T23:25:09.736Z,24.60
2023-04-16T23:27:37.175Z,25.63
2023-04-16T23:30:05.478Z,25.35
2023-04-16T23:32:34.285Z,26.25
2023-04-16T23:35:01.582Z,26.52
2023-04-16T23:37:28.753Z,24.92
2023-04-16T23:39:55.862Z,23.88
2023-04-16T23:42:22.908Z,24.38
2023-04-16T23:44:49.972Z,24.20
2023-04-16T23:47:17.002Z,23.70
2023-04-16T23:49:44.027Z,24.13
2023-04-16T23:52:11.090Z,23.48
2023-04-16T23:54:38.135Z,23.83
2023-04-16T23:57:05.352Z,24.02
2023-04-16T23:59:32.417Z,23.85
